createdAt,value
2023-03-29T00:00:57.490Z,5.30
2023-03-29T00:03:23.833Z,5.24
2023-03-29T00:05:50.181Z,5.07
2023-03-29T00:08:16.543Z,5.04
2023-03-29T00:10:42.837Z,4.99
2023-03-29T00:13:09.158Z,5.05
2023-03-29T00:15:35.612Z,4.96
2023-03-29T00:18:02.027Z,4.88
2023-03-29T00:20:28.369Z,4.95
2023-03-29T00:22:54.734Z,4.92
2023-03-29T00:25:21.082Z,4.88
2023-03-29T00:27:47.417Z,4.82
2023-03-29T00:30:13.826Z,4.80
2023-03-29T00:32:40.194Z,4.81
2023-03-29T00:35:06.821Z,4.58
2023-03-29T00:37:33.547Z,4.59
2023-03-29T00:39:59.919Z,4.59
2023-03-29T00:42:26.686Z,4.62
2023-03-29T00:45:17.557Z,4.60
2023-03-29T00:47:48.687Z,4.63
2023-03-29T00:50:24.520Z,4.48
2023-03-29T00:52:58.063Z,4.64
2023-03-29T00:55:27.549Z,4.55
2023-03-29T00:57:56.545Z,4.61
2023-03-29T01:00:28.820Z,4.45
2023-03-29T01:02:58.941Z,4.44
2023-03-29T01:05:31.231Z,4.45
2023-03-29T01:08:05.748Z,4.36
2023-03-29T01:11:10.688Z,4.21
2023-03-29T01:13:41.637Z,4.13
2023-03-29T01:16:11.248Z,4.23
2023-03-29T01:18:37.982Z,4.27
2023-03-29T01:21:39.356Z,4.14
2023-03-29T01:24:28.225Z,4.13
2023-03-29T01:27:05.228Z,4.26
2023-03-29T01:29:36.962Z,4.24
2023-03-29T01:32:18.154Z,4.21
2023-03-29T01:35:05.767Z,4.16
2023-03-29T01:37:55.373Z,4.06
2023-03-29T01:40:21.738Z,4.12
2023-03-29T01:43:05.600Z,4.17
2023-03-29T01:45:56.120Z,4.24
2023-03-29T01:48:42.270Z,4.21
2023-03-29T01:51:22.520Z,4.05
2023-03-29T01:54:01.234Z,4.14
2023-03-29T01:56:30.365Z,4.12
2023-03-29T01:59:02.285Z,4.04
2023-03-29T02:01:33.002Z,4.13
2023-03-29T02:04:03.173Z,4.08
2023-03-29T02:06:32.617Z,4.07
2023-03-29T02:08:59.605Z,4.07
2023-03-29T02:11:26.388Z,3.97
2023-03-29T02:13:53.124Z,3.95
2023-03-29T02:16:20.280Z,4.02
2023-03-29T02:18:48.873Z,4.01
2023-03-29T02:21:29.687Z,3.97
2023-03-29T02:23:59.443Z,4.01
2023-03-29T02:26:25.890Z,4.04
2023-03-29T02:28:52.330Z,4.10
2023-03-29T02:31:49.904Z,4.03
2023-03-29T02:34:23.286Z,4.10
2023-03-29T02:36:59.075Z,4.13
2023-03-29T02:39:27.804Z,4.02
2023-03-29T02:41:54.845Z,4.03
2023-03-29T02:44:23.879Z,4.10
2023-03-29T02:46:53.105Z,4.15
2023-03-29T02:49:19.662Z,4.18
2023-03-29T02:51:48.917Z,4.21
2023-03-29T02:54:18.525Z,4.24
2023-03-29T02:56:47.757Z,4.22
2023-03-29T02:59:15.497Z,4.13
2023-03-29T03:01:41.913Z,4.23
2023-03-29T03:04:09.418Z,4.23
2023-03-29T03:06:36.842Z,4.07
2023-03-29T03:09:04.396Z,4.07
2023-03-29T03:11:31.443Z,4.06
2023-03-29T03:13:58.108Z,3.99
2023-03-29T03:16:24.576Z,3.95
2023-03-29T03:18:51.502Z,4.05
2023-03-29T03:21:18.620Z,4.15
2023-03-29T03:23:46.188Z,4.14
2023-03-29T03:26:13.295Z,4.11
2023-03-29T03:28:39.636Z,4.07
2023-03-29T03:31:06.675Z,4.05
2023-03-29T03:33:33.387Z,4.11
2023-03-29T03:36:00.420Z,4.18
2023-03-29T03:38:26.716Z,4.19
2023-03-29T03:40:56.940Z,4.18
2023-03-29T03:43:23.685Z,4.18
2023-03-29T03:45:50.245Z,4.11
2023-03-29T03:48:16.877Z,4.14
2023-03-29T03:50:49.442Z,4.22
2023-03-29T03:53:15.794Z,4.34
2023-03-29T03:55:42.296Z,4.28
2023-03-29T03:58:08.697Z,4.34
2023-03-29T04:00:35.114Z,4.47
2023-03-29T04:03:01.586Z,4.41
2023-03-29T04:05:28.172Z,4.45
2023-03-29T04:07:54.489Z,4.51
2023-03-29T04:10:20.790Z,4.55
2023-03-29T04:12:47.124Z,4.39
2023-03-29T04:15:13.481Z,4.44
2023-03-29T04:17:39.930Z,4.46
2023-03-29T04:20:06.769Z,4.51
2023-03-29T04:22:33.089Z,4.42
2023-03-29T04:24:59.399Z,4.44
2023-03-29T04:27:25.720Z,4.45
2023-03-29T04:29:52.046Z,4.57
2023-03-29T04:32:18.351Z,4.57
2023-03-29T04:34:44.903Z,4.51
2023-03-29T04:37:11.232Z,4.53
2023-03-29T04:39:37.952Z,4.53
2023-03-29T04:42:05.060Z,4.55
2023-03-29T04:44:31.743Z,4.56
2023-03-29T04:46:58.062Z,4.58
2023-03-29T04:49:26.123Z,4.46
2023-03-29T04:51:52.619Z,4.55
2023-03-29T04:54:19.036Z,4.59
2023-03-29T04:56:45.389Z,4.66
2023-03-29T04:59:11.742Z,4.67
2023-03-29T05:01:38.115Z,4.65
2023-03-29T05:04:04.588Z,4.64
2023-03-29T05:06:30.926Z,4.59
2023-03-29T05:08:57.214Z,4.59
2023-03-29T05:11:23.531Z,4.73
2023-03-29T05:13:49.845Z,4.67
2023-03-29T05:16:16.200Z,4.58
2023-03-29T05:18:42.551Z,4.64
2023-03-29T05:21:08.861Z,4.58
2023-03-29T05:23:35.301Z,4.51
2023-03-29T05:26:01.596Z,4.52
2023-03-29T05:28:27.924Z,4.59
2023-03-29T05:31:02.601Z,4.70
2023-03-29T05:33:28.984Z,4.68
2023-03-29T05:36:06.624Z,4.92
2023-03-29T05:38:33.379Z,5.06
2023-03-29T05:41:00.721Z,4.98
2023-03-29T05:43:28.119Z,4.97
2023-03-29T05:45:56.025Z,5.03
2023-03-29T05:48:23.377Z,5.17
2023-03-29T05:50:50.941Z,5.28
2023-03-29T05:53:17.857Z,5.39
2023-03-29T05:55:44.851Z,5.33
2023-03-29T05:58:11.174Z,5.38
2023-03-29T06:00:38.219Z,5.48
2023-03-29T06:03:17.664Z,5.51
2023-03-29T06:05:49.118Z,5.48
2023-03-29T06:08:16.850Z,5.46
2023-03-29T06:10:43.906Z,5.51
2023-03-29T06:13:10.233Z,5.31
2023-03-29T06:15:36.536Z,5.26
2023-03-29T06:18:03.442Z,5.26
2023-03-29T06:20:29.901Z,5.49
2023-03-29T06:22:56.218Z,5.43
2023-03-29T06:25:22.613Z,5.39
2023-03-29T06:27:48.958Z,5.57
2023-03-29T06:30:15.997Z,5.52
2023-03-29T06:32:42.819Z,5.59
2023-03-29T06:35:10.212Z,5.65
2023-03-29T06:37:37.449Z,5.73
2023-03-29T06:40:04.149Z,5.78
2023-03-29T06:42:30.453Z,5.96
2023-03-29T06:44:56.765Z,6.04
2023-03-29T06:47:23.119Z,6.11
2023-03-29T06:49:49.474Z,6.02
2023-03-29T06:52:15.785Z,6.02
2023-03-29T06:54:42.107Z,6.11
2023-03-29T06:57:08.481Z,6.18
2023-03-29T06:59:35.006Z,6.33
2023-03-29T07:02:01.459Z,6.45
2023-03-29T07:04:27.860Z,6.57
2023-03-29T07:06:54.229Z,6.49
2023-03-29T07:09:20.615Z,6.50
2023-03-29T07:11:46.924Z,6.46
2023-03-29T07:14:13.245Z,6.47
2023-03-29T07:16:39.587Z,6.34
2023-03-29T07:19:05.943Z,6.42
2023-03-29T07:21:32.229Z,6.35
2023-03-29T07:23:58.571Z,6.41
2023-03-29T07:26:28.363Z,6.36
2023-03-29T07:28:55.918Z,6.46
2023-03-29T07:31:22.227Z,6.43
2023-03-29T07:33:48.654Z,6.59
2023-03-29T07:36:15.068Z,6.66
2023-03-29T07:38:41.379Z,6.78
2023-03-29T07:41:07.742Z,6.84
2023-03-29T07:43:34.231Z,6.86
2023-03-29T07:46:02.271Z,7.02
2023-03-29T07:48:28.621Z,7.21
2023-03-29T07:50:55.120Z,7.15
2023-03-29T07:53:21.569Z,7.14
2023-03-29T07:55:47.966Z,7.13
2023-03-29T07:58:14.727Z,7.14
2023-03-29T08:00:41.296Z,7.00
2023-03-29T08:03:11.126Z,6.88
2023-03-29T08:05:41.677Z,6.65
2023-03-29T08:08:08.563Z,6.71
2023-03-29T08:10:37.513Z,6.90
2023-03-29T08:13:05.732Z,6.91
2023-03-29T08:15:33.829Z,7.07
2023-03-29T08:18:00.235Z,7.15
2023-03-29T08:20:26.702Z,7.13
2023-03-29T08:22:54.414Z,7.12
2023-03-29T08:25:20.765Z,6.99
2023-03-29T08:27:47.143Z,6.98
2023-03-29T08:30:13.665Z,7.06
2023-03-29T08:32:40.181Z,7.19
2023-03-29T08:35:07.495Z,7.17
2023-03-29T08:37:33.994Z,7.11
2023-03-29T08:40:01.143Z,7.03
2023-03-29T08:43:26.299Z,7.18
2023-03-29T08:46:21.823Z,7.23
2023-03-29T08:48:56.125Z,7.25
2023-03-29T08:51:28.005Z,7.41
2023-03-29T08:54:05.565Z,7.39
2023-03-29T08:56:36.101Z,7.34
2023-03-29T08:59:03.012Z,7.28
2023-03-29T09:01:34.398Z,7.20
2023-03-29T09:04:00.779Z,7.59
2023-03-29T09:06:27.190Z,7.78
2023-03-29T09:08:53.584Z,7.92
2023-03-29T09:11:41.884Z,8.09
2023-03-29T09:15:08.168Z,8.11
2023-03-29T09:17:52.812Z,8.19
2023-03-29T09:20:47.530Z,8.47
2023-03-29T09:23:44.609Z,8.71
2023-03-29T09:26:39.701Z,8.96
2023-03-29T09:29:08.314Z,9.24
2023-03-29T09:31:43.043Z,9.28
2023-03-29T09:34:22.868Z,9.48
2023-03-29T09:36:51.085Z,9.72
2023-03-29T09:39:17.846Z,9.73
2023-03-29T09:41:56.548Z,9.66
2023-03-29T09:44:31.376Z,9.70
2023-03-29T09:47:35.442Z,9.58
2023-03-29T09:50:29.566Z,9.25
2023-03-29T09:52:57.686Z,9.39
2023-03-29T09:55:29.127Z,9.42
2023-03-29T09:58:00.353Z,9.33
2023-03-29T10:00:26.725Z,9.48
2023-03-29T10:02:56.166Z,9.49
2023-03-29T10:05:24.808Z,9.79
2023-03-29T10:07:53.864Z,9.86
2023-03-29T10:10:28.381Z,9.66
2023-03-29T10:13:00.697Z,9.49
2023-03-29T10:15:30.417Z,9.34
2023-03-29T10:18:02.299Z,9.24
2023-03-29T10:20:29.132Z,9.38
2023-03-29T10:22:57.555Z,9.57
2023-03-29T10:25:30.089Z,9.73
2023-03-29T10:28:16.852Z,10.09
2023-03-29T10:30:47.238Z,10.49
2023-03-29T10:33:20.786Z,10.78
2023-03-29T10:35:48.197Z,10.81
2023-03-29T10:38:17.906Z,10.67
2023-03-29T10:40:47.561Z,10.35
2023-03-29T10:43:19.690Z,9.98
2023-03-29T10:45:54.290Z,9.91
2023-03-29T10:48:28.861Z,9.83
2023-03-29T10:51:00.290Z,9.66
2023-03-29T10:53:29.179Z,9.72
2023-03-29T10:56:13.598Z,9.73
2023-03-29T10:59:18.638Z,9.96
2023-03-29T11:01:54.429Z,10.06
2023-03-29T11:04:42.513Z,10.04
2023-03-29T11:07:25.699Z,9.81
2023-03-29T11:10:04.657Z,9.92
2023-03-29T11:12:31.012Z,9.94
2023-03-29T11:15:22.853Z,9.93
2023-03-29T11:18:16.641Z,9.90
2023-03-29T11:20:56.010Z,9.80
2023-03-29T11:23:55.172Z,9.51
2023-03-29T11:26:33.338Z,9.53
2023-03-29T11:29:10.470Z,9.49
2023-03-29T11:31:53.705Z,9.52
2023-03-29T11:34:36.881Z,9.73
2023-03-29T11:37:16.606Z,9.87
2023-03-29T11:40:12.238Z,10.27
2023-03-29T11:42:41.009Z,10.54
2023-03-29T11:45:14.985Z,10.56
2023-03-29T11:47:42.959Z,10.61
2023-03-29T11:50:19.235Z,10.63
2023-03-29T11:53:00.913Z,10.80
2023-03-29T11:55:31.120Z,10.72
2023-03-29T11:58:03.384Z,10.65
2023-03-29T12:00:36.811Z,10.68
2023-03-29T12:03:30.033Z,10.53
2023-03-29T12:06:04.041Z,10.53
2023-03-29T12:08:40.406Z,10.61
2023-03-29T12:11:20.214Z,10.76
2023-03-29T12:14:10.268Z,10.70
2023-03-29T12:16:46.973Z,10.83
2023-03-29T12:19:31.148Z,10.99
2023-03-29T12:21:59.436Z,10.83
2023-03-29T12:24:29.695Z,10.83
2023-03-29T12:27:02.010Z,11.08
2023-03-29T12:30:02.357Z,11.20
2023-03-29T12:32:38.625Z,10.86
2023-03-29T12:35:11.003Z,10.79
2023-03-29T12:37:37.242Z,10.56
2023-03-29T12:40:16.204Z,10.52
2023-03-29T12:43:06.841Z,10.37
2023-03-29T12:45:44.060Z,10.54
2023-03-29T12:48:16.895Z,10.69
2023-03-29T12:50:49.726Z,10.67
2023-03-29T12:53:26.331Z,10.40
2023-03-29T12:56:14.321Z,10.54
2023-03-29T12:58:53.445Z,10.52
2023-03-29T13:01:33.352Z,10.55
2023-03-29T13:03:59.669Z,10.85
2023-03-29T13:06:34.672Z,11.03
2023-03-29T13:09:19.300Z,10.93
2023-03-29T13:11:53.298Z,10.99
2023-03-29T13:14:24.864Z,11.28
2023-03-29T13:16:51.493Z,11.70
2023-03-29T13:19:35.599Z,12.02
2023-03-29T13:22:18.348Z,12.09
2023-03-29T13:24:57.171Z,12.21
2023-03-29T13:27:41.866Z,11.73
2023-03-29T13:30:24.219Z,11.49
2023-03-29T13:33:28.589Z,11.18
2023-03-29T13:36:13.887Z,10.99
2023-03-29T13:38:50.755Z,11.13
2023-03-29T13:41:40.308Z,11.14
2023-03-29T13:44:21.908Z,11.11
2023-03-29T13:46:49.765Z,10.97
2023-03-29T13:49:23.081Z,10.91
2023-03-29T13:52:05.023Z,11.24
2023-03-29T13:54:43.947Z,11.60
2023-03-29T13:57:19.604Z,11.72
2023-03-29T14:00:39.974Z,11.71
2023-03-29T14:03:12.325Z,11.58
2023-03-29T14:05:43.165Z,11.47
2023-03-29T14:08:23.319Z,11.36
2023-03-29T14:10:50.084Z,11.22
2023-03-29T14:13:23.093Z,11.20
2023-03-29T14:15:55.108Z,11.12
2023-03-29T14:18:23.712Z,11.18
2023-03-29T14:20:52.232Z,11.03
2023-03-29T14:23:24.714Z,10.92
2023-03-29T14:25:51.046Z,11.14
2023-03-29T14:28:23.183Z,11.21
2023-03-29T14:30:50.159Z,11.38
2023-03-29T14:33:29.705Z,11.38
2023-03-29T14:35:58.401Z,11.15
2023-03-29T14:38:26.303Z,11.32
2023-03-29T14:40:52.980Z,11.28
2023-03-29T14:43:21.738Z,11.28
2023-03-29T14:45:49.530Z,11.21
2023-03-29T14:48:16.630Z,11.27
2023-03-29T14:50:45.384Z,11.15
2023-03-29T14:53:23.271Z,11.07
2023-03-29T14:55:52.000Z,11.26
2023-03-29T14:58:29.211Z,11.23
2023-03-29T15:00:55.545Z,11.35
2023-03-29T15:03:22.071Z,11.42
2023-03-29T15:06:06.557Z,11.57
2023-03-29T15:08:36.078Z,11.53
2023-03-29T15:11:02.927Z,11.34
2023-03-29T15:13:30.506Z,11.20
2023-03-29T15:16:01.869Z,11.00
2023-03-29T15:18:35.097Z,10.99
2023-03-29T15:21:02.112Z,10.97
2023-03-29T15:23:54.931Z,11.01
2023-03-29T15:26:28.502Z,11.21
2023-03-29T15:29:05.123Z,11.21
2023-03-29T15:31:39.898Z,11.29
2023-03-29T15:34:11.545Z,11.38
2023-03-29T15:36:42.823Z,11.45
2023-03-29T15:39:13.865Z,11.32
2023-03-29T15:41:41.414Z,11.35
2023-03-29T15:44:08.315Z,11.26
2023-03-29T15:46:34.742Z,11.36
2023-03-29T15:49:01.188Z,11.28
2023-03-29T15:51:27.612Z,11.29
2023-03-29T15:53:53.893Z,11.17
2023-03-29T15:56:21.486Z,11.03
2023-03-29T15:58:48.344Z,11.20
2023-03-29T16:01:31.477Z,11.35
2023-03-29T16:03:57.802Z,11.51
2023-03-29T16:06:24.103Z,11.60
2023-03-29T16:08:50.418Z,11.65
2023-03-29T16:11:16.730Z,11.73
2023-03-29T16:13:43.073Z,11.82
2023-03-29T16:16:12.197Z,11.73
2023-03-29T16:18:38.599Z,11.80
2023-03-29T16:21:05.277Z,11.72
2023-03-29T16:23:31.721Z,11.61
2023-03-29T16:25:58.046Z,11.51
2023-03-29T16:28:25.064Z,11.57
2023-03-29T16:30:51.404Z,11.44
2023-03-29T16:33:17.699Z,11.52
2023-03-29T16:35:44.036Z,11.47
2023-03-29T16:38:10.464Z,11.42
2023-03-29T16:40:36.925Z,11.31
2023-03-29T16:43:03.719Z,11.20
2023-03-29T16:45:30.038Z,11.09
2023-03-29T16:47:56.967Z,11.03
2023-03-29T16:50:23.396Z,11.04
2023-03-29T16:52:49.822Z,11.07
2023-03-29T16:55:16.311Z,10.94
2023-03-29T16:57:42.631Z,10.86
2023-03-29T17:00:11.268Z,10.88
2023-03-29T17:02:37.625Z,10.79
2023-03-29T17:05:04.243Z,10.69
2023-03-29T17:07:30.554Z,10.47
2023-03-29T17:09:56.857Z,10.28
2023-03-29T17:12:23.328Z,10.33
2023-03-29T17:14:49.728Z,10.28
2023-03-29T17:17:16.064Z,10.32
2023-03-29T17:19:42.365Z,10.25
2023-03-29T17:22:08.673Z,10.25
2023-03-29T17:24:35.003Z,10.25
2023-03-29T17:27:01.339Z,10.30
2023-03-29T17:29:27.656Z,10.26
2023-03-29T17:31:54.851Z,10.23
2023-03-29T17:34:21.187Z,10.07
2023-03-29T17:36:47.552Z,10.10
2023-03-29T17:39:13.937Z,10.11
2023-03-29T17:41:40.233Z,10.18
2023-03-29T17:44:06.540Z,10.12
2023-03-29T17:46:32.897Z,10.08
2023-03-29T17:48:59.236Z,10.10
2023-03-29T17:51:26.404Z,10.05
2023-03-29T17:53:52.896Z,10.07
2023-03-29T17:56:19.487Z,9.98
2023-03-29T17:58:46.473Z,10.08
2023-03-29T18:01:13.589Z,10.01
2023-03-29T18:03:39.983Z,10.03
2023-03-29T18:06:06.806Z,9.90
2023-03-29T18:08:33.279Z,9.87
2023-03-29T18:11:11.055Z,9.88
2023-03-29T18:13:38.685Z,9.72
2023-03-29T18:16:06.153Z,9.78
2023-03-29T18:18:33.716Z,9.73
2023-03-29T18:21:00.672Z,9.78
2023-03-29T18:23:27.284Z,9.87
2023-03-29T18:26:04.240Z,9.78
2023-03-29T18:28:32.345Z,9.89
2023-03-29T18:30:58.694Z,9.80
2023-03-29T18:33:25.250Z,9.89
2023-03-29T18:35:51.911Z,9.85
2023-03-29T18:38:19.831Z,9.77
2023-03-29T18:40:47.235Z,9.82
2023-03-29T18:43:13.939Z,9.84
2023-03-29T18:45:40.274Z,9.88
2023-03-29T18:48:07.051Z,9.96
2023-03-29T18:50:34.381Z,9.93
2023-03-29T18:53:00.838Z,9.84
2023-03-29T18:55:30.993Z,9.83
2023-03-29T18:57:57.293Z,9.80
2023-03-29T19:00:23.644Z,9.80
2023-03-29T19:02:50.091Z,9.83
2023-03-29T19:05:16.472Z,9.85
2023-03-29T19:07:42.772Z,9.89
2023-03-29T19:10:09.289Z,9.90
2023-03-29T19:12:35.636Z,9.91
2023-03-29T19:15:01.958Z,9.90
2023-03-29T19:17:28.322Z,9.96
2023-03-29T19:19:54.685Z,9.96
2023-03-29T19:22:20.996Z,9.95
2023-03-29T19:24:47.288Z,9.95
2023-03-29T19:27:13.614Z,9.92
2023-03-29T19:29:40.076Z,9.92
2023-03-29T19:32:06.433Z,9.91
2023-03-29T19:34:33.326Z,9.83
2023-03-29T19:36:59.764Z,9.76
2023-03-29T19:39:26.578Z,9.77
2023-03-29T19:41:52.916Z,9.71
2023-03-29T19:44:19.693Z,9.60
2023-03-29T19:46:46.068Z,9.60
2023-03-29T19:49:12.415Z,9.60
2023-03-29T19:51:39.937Z,9.69
2023-03-29T19:54:06.274Z,9.72
2023-03-29T19:56:33.048Z,9.80
2023-03-29T19:58:59.373Z,9.72
2023-03-29T20:01:25.710Z,9.71
2023-03-29T20:03:52.032Z,9.70
2023-03-29T20:06:20.412Z,9.70
2023-03-29T20:08:47.047Z,9.54
2023-03-29T20:11:15.178Z,9.48
2023-03-29T20:13:43.339Z,9.53
2023-03-29T20:16:15.251Z,9.42
2023-03-29T20:18:42.315Z,9.60
2023-03-29T20:21:09.181Z,9.63
2023-03-29T20:23:35.845Z,9.70
2023-03-29T20:26:02.197Z,9.76
2023-03-29T20:28:28.484Z,9.69
2023-03-29T20:30:54.808Z,9.72
2023-03-29T20:33:21.651Z,9.68
2023-03-29T20:35:48.667Z,9.71
2023-03-29T20:38:15.429Z,9.72
2023-03-29T20:40:42.228Z,9.72
2023-03-29T20:43:09.190Z,9.74
2023-03-29T20:45:42.924Z,9.76
2023-03-29T20:48:17.139Z,9.78
2023-03-29T20:50:45.606Z,9.72
2023-03-29T20:53:11.986Z,9.71
2023-03-29T20:55:38.380Z,9.63
2023-03-29T20:58:05.673Z,9.63
2023-03-29T21:00:33.561Z,9.56
2023-03-29T21:03:00.363Z,9.54
2023-03-29T21:05:28.504Z,9.46
2023-03-29T21:07:54.980Z,9.41
2023-03-29T21:10:22.149Z,9.44
2023-03-29T21:12:48.435Z,9.42
2023-03-29T21:15:14.744Z,9.33
2023-03-29T21:17:41.081Z,9.33
2023-03-29T21:20:08.202Z,9.33
2023-03-29T21:22:34.944Z,9.35
2023-03-29T21:25:02.022Z,9.36
2023-03-29T21:27:28.405Z,9.42
2023-03-29T21:29:54.705Z,9.39
2023-03-29T21:32:21.014Z,9.28
2023-03-29T21:34:47.330Z,9.27
2023-03-29T21:37:15.289Z,9.31
2023-03-29T21:39:41.670Z,9.35
2023-03-29T21:42:08.018Z,9.37
2023-03-29T21:44:34.514Z,9.35
2023-03-29T21:47:01.084Z,9.37
2023-03-29T21:49:27.427Z,9.23
2023-03-29T21:51:53.753Z,9.25
2023-03-29T21:54:20.089Z,9.29
2023-03-29T21:56:46.459Z,9.39
2023-03-29T21:59:12.857Z,9.37
2023-03-29T22:01:39.217Z,9.42
2023-03-29T22:04:05.595Z,9.44
2023-03-29T22:06:31.911Z,9.37
2023-03-29T22:08:58.305Z,9.34
2023-03-29T22:11:24.625Z,9.24
2023-03-29T22:13:51.851Z,9.25
2023-03-29T22:16:18.289Z,9.21
2023-03-29T22:18:46.275Z,9.12
2023-03-29T22:21:15.564Z,9.15
2023-03-29T22:23:43.985Z,9.15
2023-03-29T22:26:12.263Z,9.05
2023-03-29T22:28:39.830Z,8.97
2023-03-29T22:31:14.343Z,8.99
2023-03-29T22:33:41.330Z,9.04
2023-03-29T22:36:16.574Z,9.09
2023-03-29T22:38:44.053Z,9.22
2023-03-29T22:41:10.553Z,9.21
2023-03-29T22:43:37.213Z,9.25
2023-03-29T22:46:05.303Z,9.17
2023-03-29T22:48:32.139Z,9.18
2023-03-29T22:50:58.923Z,9.29
2023-03-29T22:53:25.747Z,9.24
2023-03-29T22:55:52.155Z,9.17
2023-03-29T22:58:18.551Z,9.26
2023-03-29T23:00:44.853Z,9.20
2023-03-29T23:03:11.165Z,9.18
2023-03-29T23:05:37.448Z,9.18
2023-03-29T23:08:03.776Z,9.25
2023-03-29T23:10:30.145Z,9.26
2023-03-29T23:13:01.666Z,9.17
2023-03-29T23:15:29.478Z,9.25
2023-03-29T23:17:56.049Z,9.24
2023-03-29T23:20:22.378Z,9.31
2023-03-29T23:22:48.688Z,9.30
2023-03-29T23:25:15.094Z,9.31
2023-03-29T23:27:41.379Z,9.30
2023-03-29T23:30:08.147Z,9.39
2023-03-29T23:32:34.467Z,9.35
2023-03-29T23:35:00.796Z,9.34
2023-03-29T23:37:27.128Z,9.33
2023-03-29T23:39:53.422Z,9.23
2023-03-29T23:42:19.719Z,9.28
2023-03-29T23:44:46.032Z,9.33
2023-03-29T23:47:12.348Z,9.34
2023-03-29T23:49:38.654Z,9.27
2023-03-29T23:52:05.198Z,9.29
2023-03-29T23:54:31.530Z,9.24
2023-03-29T23:56:57.906Z,9.42
2023-03-29T23:59:24.349Z,9.45
